sensor_id;sensor_type;location;lat;lon;timestamp;P1;durP1;ratioP1;P2;durP2;ratioP2
76863;SDS011;65834;52.364;9.754;2023-07-24T00:02:19;5.70;;;1.90;;
76863;SDS011;65834;52.364;9.754;2023-07-24T00:04:49;3.30;;;1.70;;
76863;SDS011;65834;52.364;9.754;2023-07-24T00:07:19;2.80;;;1.42;;
76863;SDS011;65834;52.364;9.754;2023-07-24T00:09:49;3.55;;;1.80;;
76863;SDS011;65834;52.364;9.754;2023-07-24T00:12:19;2.30;;;1.50;;
76863;SDS011;65834;52.364;9.754;2023-07-24T00:14:48;4.20;;;1.50;;
76863;SDS011;65834;52.364;9.754;2023-07-24T00:17:20;3.47;;;1.67;;
76863;SDS011;65834;52.364;9.754;2023-07-24T00:22:20;3.65;;;1.70;;
76863;SDS011;65834;52.364;9.754;2023-07-24T00:24:49;4.07;;;1.70;;
76863;SDS011;65834;52.364;9.754;2023-07-24T00:27:19;3.30;;;1.65;;
76863;SDS011;65834;52.364;9.754;2023-07-24T00:29:49;4.32;;;1.90;;
76863;SDS011;65834;52.364;9.754;2023-07-24T00:32:22;4.30;;;1.73;;
76863;SDS011;65834;52.364;9.754;2023-07-24T00:34:54;4.25;;;1.90;;
76863;SDS011;65834;52.364;9.754;2023-07-24T00:37:24;5.45;;;2.10;;
76863;SDS011;65834;52.364;9.754;2023-07-24T00:39:54;4.88;;;2.03;;
76863;SDS011;65834;52.364;9.754;2023-07-24T00:42:23;5.13;;;1.80;;
76863;SDS011;65834;52.364;9.754;2023-07-24T00:44:53;4.85;;;2.00;;
76863;SDS011;65834;52.364;9.754;2023-07-24T00:47:25;3.90;;;1.90;;
76863;SDS011;65834;52.364;9.754;2023-07-24T00:49:56;3.72;;;2.15;;
76863;SDS011;65834;52.364;9.754;2023-07-24T00:52:26;4.85;;;1.90;;
76863;SDS011;65834;52.364;9.754;2023-07-24T00:54:55;4.13;;;2.20;;
76863;SDS011;65834;52.364;9.754;2023-07-24T00:57:27;4.85;;;1.88;;
76863;SDS011;65834;52.364;9.754;2023-07-24T00:59:57;3.63;;;2.10;;
76863;SDS011;65834;52.364;9.754;2023-07-24T01:02:29;4.43;;;2.15;;
76863;SDS011;65834;52.364;9.754;2023-07-24T01:04:59;5.65;;;2.38;;
76863;SDS011;65834;52.364;9.754;2023-07-24T01:07:29;6.65;;;2.50;;
76863;SDS011;65834;52.364;9.754;2023-07-24T01:09:59;5.45;;;2.30;;
76863;SDS011;65834;52.364;9.754;2023-07-24T01:12:30;5.43;;;2.55;;
76863;SDS011;65834;52.364;9.754;2023-07-24T01:15:06;6.22;;;2.70;;
76863;SDS011;65834;52.364;9.754;2023-07-24T01:17:42;5.93;;;2.60;;
76863;SDS011;65834;52.364;9.754;2023-07-24T01:20:15;6.88;;;2.67;;
76863;SDS011;65834;52.364;9.754;2023-07-24T01:22:48;6.80;;;3.03;;
76863;SDS011;65834;52.364;9.754;2023-07-24T01:25:31;7.40;;;3.00;;
76863;SDS011;65834;52.364;9.754;2023-07-24T01:28:08;6.80;;;3.10;;
76863;SDS011;65834;52.364;9.754;2023-07-24T01:30:38;6.00;;;2.50;;
76863;SDS011;65834;52.364;9.754;2023-07-24T01:33:08;7.43;;;2.75;;
76863;SDS011;65834;52.364;9.754;2023-07-24T01:35:37;7.15;;;3.40;;
76863;SDS011;65834;52.364;9.754;2023-07-24T01:38:07;6.30;;;2.80;;
76863;SDS011;65834;52.364;9.754;2023-07-24T01:40:37;8.43;;;3.75;;
76863;SDS011;65834;52.364;9.754;2023-07-24T01:43:10;7.88;;;3.42;;
76863;SDS011;65834;52.364;9.754;2023-07-24T01:45:40;9.95;;;3.50;;
76863;SDS011;65834;52.364;9.754;2023-07-24T01:48:09;7.78;;;3.38;;
76863;SDS011;65834;52.364;9.754;2023-07-24T01:50:39;8.77;;;3.65;;
76863;SDS011;65834;52.364;9.754;2023-07-24T01:53:09;6.72;;;3.10;;
76863;SDS011;65834;52.364;9.754;2023-07-24T01:55:39;8.18;;;3.35;;
76863;SDS011;65834;52.364;9.754;2023-07-24T01:58:11;7.18;;;3.30;;
76863;SDS011;65834;52.364;9.754;2023-07-24T02:00:41;6.18;;;2.97;;
76863;SDS011;65834;52.364;9.754;2023-07-24T02:03:11;7.15;;;3.30;;
76863;SDS011;65834;52.364;9.754;2023-07-24T02:05:48;7.40;;;3.13;;
76863;SDS011;65834;52.364;9.754;2023-07-24T02:08:18;7.57;;;3.63;;
76863;SDS011;65834;52.364;9.754;2023-07-24T02:10:48;8.52;;;3.20;;
76863;SDS011;65834;52.364;9.754;2023-07-24T02:13:21;8.15;;;3.45;;
76863;SDS011;65834;52.364;9.754;2023-07-24T02:15:51;8.35;;;3.30;;
76863;SDS011;65834;52.364;9.754;2023-07-24T02:18:20;8.40;;;3.42;;
76863;SDS011;65834;52.364;9.754;2023-07-24T02:20:50;9.27;;;3.88;;
76863;SDS011;65834;52.364;9.754;2023-07-24T02:23:20;7.57;;;3.40;;
76863;SDS011;65834;52.364;9.754;2023-07-24T02:25:50;7.43;;;3.22;;
76863;SDS011;65834;52.364;9.754;2023-07-24T02:28:23;7.93;;;3.33;;
76863;SDS011;65834;52.364;9.754;2023-07-24T02:30:53;11.82;;;3.92;;
76863;SDS011;65834;52.364;9.754;2023-07-24T02:33:25;8.15;;;3.58;;
76863;SDS011;65834;52.364;9.754;2023-07-24T02:35:55;10.48;;;3.95;;
76863;SDS011;65834;52.364;9.754;2023-07-24T02:38:24;7.72;;;3.20;;
76863;SDS011;65834;52.364;9.754;2023-07-24T02:40:54;7.10;;;3.53;;
76863;SDS011;65834;52.364;9.754;2023-07-24T02:43:26;8.52;;;3.63;;
76863;SDS011;65834;52.364;9.754;2023-07-24T02:45:59;10.07;;;3.80;;
76863;SDS011;65834;52.364;9.754;2023-07-24T02:48:30;7.30;;;3.70;;
76863;SDS011;65834;52.364;9.754;2023-07-24T02:50:59;8.20;;;3.40;;
76863;SDS011;65834;52.364;9.754;2023-07-24T02:53:29;8.35;;;3.75;;
76863;SDS011;65834;52.364;9.754;2023-07-24T02:56:00;8.90;;;3.55;;
76863;SDS011;65834;52.364;9.754;2023-07-24T02:58:32;8.52;;;3.47;;
76863;SDS011;65834;52.364;9.754;2023-07-24T03:01:03;7.60;;;3.35;;
76863;SDS011;65834;52.364;9.754;2023-07-24T03:03:33;7.72;;;3.28;;
76863;SDS011;65834;52.364;9.754;2023-07-24T03:06:03;7.15;;;3.88;;
76863;SDS011;65834;52.364;9.754;2023-07-24T03:08:33;7.93;;;3.35;;
76863;SDS011;65834;52.364;9.754;2023-07-24T03:11:04;7.55;;;3.13;;
76863;SDS011;65834;52.364;9.754;2023-07-24T03:13:36;5.93;;;3.03;;
76863;SDS011;65834;52.364;9.754;2023-07-24T03:16:07;6.82;;;3.03;;
76863;SDS011;65834;52.364;9.754;2023-07-24T03:18:37;6.38;;;2.70;;
76863;SDS011;65834;52.364;9.754;2023-07-24T03:21:07;5.82;;;2.80;;
76863;SDS011;65834;52.364;9.754;2023-07-24T03:23:36;6.90;;;2.90;;
76863;SDS011;65834;52.364;9.754;2023-07-24T03:26:06;5.93;;;2.55;;
76863;SDS011;65834;52.364;9.754;2023-07-24T03:28:38;5.20;;;2.60;;
76863;SDS011;65834;52.364;9.754;2023-07-24T03:31:07;6.43;;;2.58;;
76863;SDS011;65834;52.364;9.754;2023-07-24T03:33:37;5.72;;;2.42;;
76863;SDS011;65834;52.364;9.754;2023-07-24T03:36:07;4.80;;;2.40;;
76863;SDS011;65834;52.364;9.754;2023-07-24T03:38:36;7.40;;;2.70;;
76863;SDS011;65834;52.364;9.754;2023-07-24T03:41:06;5.80;;;2.30;;
76863;SDS011;65834;52.364;9.754;2023-07-24T03:43:38;7.35;;;2.63;;
76863;SDS011;65834;52.364;9.754;2023-07-24T03:46:08;5.32;;;2.38;;
76863;SDS011;65834;52.364;9.754;2023-07-24T03:48:37;6.25;;;2.13;;
76863;SDS011;65834;52.364;9.754;2023-07-24T03:51:07;5.55;;;2.22;;
76863;SDS011;65834;52.364;9.754;2023-07-24T03:53:37;7.63;;;2.53;;
76863;SDS011;65834;52.364;9.754;2023-07-24T03:56:07;6.43;;;2.10;;
76863;SDS011;65834;52.364;9.754;2023-07-24T03:58:39;6.63;;;2.70;;
76863;SDS011;65834;52.364;9.754;2023-07-24T04:01:09;4.63;;;2.17;;
76863;SDS011;65834;52.364;9.754;2023-07-24T04:03:38;4.78;;;2.00;;
76863;SDS011;65834;52.364;9.754;2023-07-24T04:06:08;6.15;;;2.13;;
76863;SDS011;65834;52.364;9.754;2023-07-24T04:08:38;6.65;;;2.70;;
76863;SDS011;65834;52.364;9.754;2023-07-24T04:11:08;6.63;;;2.00;;
76863;SDS011;65834;52.364;9.754;2023-07-24T04:13:41;5.05;;;2.20;;
76863;SDS011;65834;52.364;9.754;2023-07-24T04:16:10;5.78;;;2.33;;
76863;SDS011;65834;52.364;9.754;2023-07-24T04:18:40;5.03;;;2.30;;
76863;SDS011;65834;52.364;9.754;2023-07-24T04:21:09;6.72;;;2.30;;
76863;SDS011;65834;52.364;9.754;2023-07-24T04:23:39;6.70;;;2.33;;
76863;SDS011;65834;52.364;9.754;2023-07-24T04:26:08;6.32;;;2.38;;
76863;SDS011;65834;52.364;9.754;2023-07-24T04:28:41;5.68;;;2.45;;
76863;SDS011;65834;52.364;9.754;2023-07-24T04:31:10;6.40;;;2.20;;
76863;SDS011;65834;52.364;9.754;2023-07-24T04:33:40;5.93;;;2.20;;
76863;SDS011;65834;52.364;9.754;2023-07-24T04:36:09;7.82;;;2.70;;
76863;SDS011;65834;52.364;9.754;2023-07-24T04:38:43;7.88;;;2.70;;
76863;SDS011;65834;52.364;9.754;2023-07-24T04:41:13;7.72;;;2.42;;
76863;SDS011;65834;52.364;9.754;2023-07-24T04:43:45;6.13;;;2.22;;
76863;SDS011;65834;52.364;9.754;2023-07-24T04:46:15;7.68;;;2.60;;
76863;SDS011;65834;52.364;9.754;2023-07-24T04:48:45;5.75;;;2.28;;
76863;SDS011;65834;52.364;9.754;2023-07-24T04:51:14;4.28;;;2.13;;
76863;SDS011;65834;52.364;9.754;2023-07-24T04:53:45;7.45;;;2.25;;
76863;SDS011;65834;52.364;9.754;2023-07-24T04:56:14;5.82;;;2.20;;
76863;SDS011;65834;52.364;9.754;2023-07-24T04:58:46;5.82;;;2.20;;
76863;SDS011;65834;52.364;9.754;2023-07-24T05:01:16;7.30;;;2.33;;
76863;SDS011;65834;52.364;9.754;2023-07-24T05:03:46;7.68;;;2.70;;
76863;SDS011;65834;52.364;9.754;2023-07-24T05:06:15;5.43;;;2.35;;
76863;SDS011;65834;52.364;9.754;2023-07-24T05:08:45;6.80;;;2.20;;
76863;SDS011;65834;52.364;9.754;2023-07-24T05:11:14;6.15;;;2.38;;
76863;SDS011;65834;52.364;9.754;2023-07-24T05:13:46;5.38;;;2.05;;
76863;SDS011;65834;52.364;9.754;2023-07-24T05:16:16;6.38;;;2.17;;
76863;SDS011;65834;52.364;9.754;2023-07-24T05:18:46;4.90;;;2.05;;
76863;SDS011;65834;52.364;9.754;2023-07-24T05:21:15;6.03;;;2.38;;
76863;SDS011;65834;52.364;9.754;2023-07-24T05:23:45;6.05;;;2.30;;
76863;SDS011;65834;52.364;9.754;2023-07-24T05:26:14;4.80;;;2.00;;
76863;SDS011;65834;52.364;9.754;2023-07-24T05:28:47;4.93;;;1.95;;
76863;SDS011;65834;52.364;9.754;2023-07-24T05:31:19;5.68;;;1.75;;
76863;SDS011;65834;52.364;9.754;2023-07-24T05:33:48;6.68;;;2.22;;
76863;SDS011;65834;52.364;9.754;2023-07-24T05:36:18;3.78;;;2.03;;
76863;SDS011;65834;52.364;9.754;2023-07-24T05:38:47;4.82;;;1.90;;
76863;SDS011;65834;52.364;9.754;2023-07-24T05:41:17;5.70;;;1.92;;
76863;SDS011;65834;52.364;9.754;2023-07-24T05:43:49;5.18;;;2.13;;
76863;SDS011;65834;52.364;9.754;2023-07-24T05:46:19;5.88;;;1.83;;
76863;SDS011;65834;52.364;9.754;2023-07-24T05:48:49;6.07;;;2.05;;
76863;SDS011;65834;52.364;9.754;2023-07-24T05:51:18;5.55;;;1.90;;
76863;SDS011;65834;52.364;9.754;2023-07-24T05:53:49;7.28;;;2.10;;
76863;SDS011;65834;52.364;9.754;2023-07-24T05:56:18;8.40;;;2.47;;
76863;SDS011;65834;52.364;9.754;2023-07-24T05:58:51;6.93;;;2.15;;
76863;SDS011;65834;52.364;9.754;2023-07-24T06:01:21;7.35;;;2.03;;
76863;SDS011;65834;52.364;9.754;2023-07-24T06:03:50;6.20;;;2.05;;
76863;SDS011;65834;52.364;9.754;2023-07-24T06:06:20;4.70;;;1.85;;
76863;SDS011;65834;52.364;9.754;2023-07-24T06:08:50;5.85;;;2.10;;
76863;SDS011;65834;52.364;9.754;2023-07-24T06:11:19;5.13;;;1.95;;
76863;SDS011;65834;52.364;9.754;2023-07-24T06:13:52;6.22;;;2.20;;
76863;SDS011;65834;52.364;9.754;2023-07-24T06:18:51;6.65;;;2.17;;
76863;SDS011;65834;52.364;9.754;2023-07-24T06:21:21;5.75;;;2.17;;
76863;SDS011;65834;52.364;9.754;2023-07-24T06:23:50;6.43;;;2.22;;
76863;SDS011;65834;52.364;9.754;2023-07-24T06:26:20;6.60;;;2.17;;
76863;SDS011;65834;52.364;9.754;2023-07-24T06:28:52;6.00;;;2.10;;
76863;SDS011;65834;52.364;9.754;2023-07-24T06:31:22;4.97;;;2.30;;
76863;SDS011;65834;52.364;9.754;2023-07-24T06:33:51;6.93;;;2.28;;
76863;SDS011;65834;52.364;9.754;2023-07-24T06:36:21;6.88;;;2.30;;
76863;SDS011;65834;52.364;9.754;2023-07-24T06:38:51;5.78;;;2.25;;
76863;SDS011;65834;52.364;9.754;2023-07-24T06:41:20;4.32;;;2.20;;
76863;SDS011;65834;52.364;9.754;2023-07-24T06:43:54;6.90;;;2.30;;
76863;SDS011;65834;52.364;9.754;2023-07-24T06:46:23;7.30;;;2.63;;
76863;SDS011;65834;52.364;9.754;2023-07-24T06:48:53;6.95;;;2.28;;
76863;SDS011;65834;52.364;9.754;2023-07-24T06:51:23;7.03;;;2.20;;
76863;SDS011;65834;52.364;9.754;2023-07-24T06:53:53;6.22;;;2.45;;
76863;SDS011;65834;52.364;9.754;2023-07-24T06:56:22;5.80;;;2.22;;
76863;SDS011;65834;52.364;9.754;2023-07-24T06:58:54;8.77;;;2.58;;
76863;SDS011;65834;52.364;9.754;2023-07-24T07:01:24;6.15;;;2.40;;
76863;SDS011;65834;52.364;9.754;2023-07-24T07:03:53;6.65;;;2.38;;
76863;SDS011;65834;52.364;9.754;2023-07-24T07:06:23;8.75;;;2.58;;
76863;SDS011;65834;52.364;9.754;2023-07-24T07:08:54;7.68;;;2.95;;
76863;SDS011;65834;52.364;9.754;2023-07-24T07:11:23;7.55;;;2.70;;
76863;SDS011;65834;52.364;9.754;2023-07-24T07:13:55;7.20;;;2.38;;
76863;SDS011;65834;52.364;9.754;2023-07-24T07:16:25;7.35;;;2.85;;
76863;SDS011;65834;52.364;9.754;2023-07-24T07:18:55;7.30;;;2.60;;
76863;SDS011;65834;52.364;9.754;2023-07-24T07:21:25;6.13;;;2.22;;
76863;SDS011;65834;52.364;9.754;2023-07-24T07:23:55;7.45;;;2.53;;
76863;SDS011;65834;52.364;9.754;2023-07-24T07:26:24;8.98;;;3.10;;
76863;SDS011;65834;52.364;9.754;2023-07-24T07:28:58;8.53;;;2.80;;
76863;SDS011;65834;52.364;9.754;2023-07-24T07:31:28;8.65;;;2.70;;
76863;SDS011;65834;52.364;9.754;2023-07-24T07:33:58;12.15;;;3.35;;
76863;SDS011;65834;52.364;9.754;2023-07-24T07:36:27;15.32;;;3.80;;
76863;SDS011;65834;52.364;9.754;2023-07-24T07:38:58;7.43;;;2.90;;
76863;SDS011;65834;52.364;9.754;2023-07-24T07:41:27;9.55;;;2.67;;
76863;SDS011;65834;52.364;9.754;2023-07-24T07:44:00;12.27;;;3.15;;
76863;SDS011;65834;52.364;9.754;2023-07-24T07:46:29;11.18;;;2.78;;
76863;SDS011;65834;52.364;9.754;2023-07-24T07:48:59;10.00;;;3.20;;
76863;SDS011;65834;52.364;9.754;2023-07-24T07:51:29;9.07;;;2.83;;
76863;SDS011;65834;52.364;9.754;2023-07-24T07:53:58;10.05;;;3.15;;
76863;SDS011;65834;52.364;9.754;2023-07-24T07:56:28;10.35;;;3.13;;
76863;SDS011;65834;52.364;9.754;2023-07-24T07:59:00;11.07;;;3.30;;
76863;SDS011;65834;52.364;9.754;2023-07-24T08:01:35;12.13;;;3.47;;
76863;SDS011;65834;52.364;9.754;2023-07-24T08:04:05;13.07;;;3.25;;
76863;SDS011;65834;52.364;9.754;2023-07-24T08:06:35;12.50;;;3.50;;
76863;SDS011;65834;52.364;9.754;2023-07-24T08:09:04;10.07;;;3.15;;
76863;SDS011;65834;52.364;9.754;2023-07-24T08:11:37;9.45;;;3.50;;
76863;SDS011;65834;52.364;9.754;2023-07-24T08:14:09;10.13;;;3.30;;
76863;SDS011;65834;52.364;9.754;2023-07-24T08:16:39;9.85;;;2.80;;
76863;SDS011;65834;52.364;9.754;2023-07-24T08:19:09;8.50;;;3.10;;
76863;SDS011;65834;52.364;9.754;2023-07-24T08:21:38;9.63;;;3.20;;
76863;SDS011;65834;52.364;9.754;2023-07-24T08:24:08;11.57;;;3.05;;
76863;SDS011;65834;52.364;9.754;2023-07-24T08:26:38;9.25;;;3.33;;
76863;SDS011;65834;52.364;9.754;2023-07-24T08:29:10;7.88;;;2.72;;
76863;SDS011;65834;52.364;9.754;2023-07-24T08:31:39;8.80;;;3.38;;
76863;SDS011;65834;52.364;9.754;2023-07-24T08:34:09;9.98;;;3.53;;
76863;SDS011;65834;52.364;9.754;2023-07-24T08:36:39;9.40;;;3.13;;
76863;SDS011;65834;52.364;9.754;2023-07-24T08:39:09;8.65;;;3.08;;
76863;SDS011;65834;52.364;9.754;2023-07-24T08:41:38;9.77;;;3.25;;
76863;SDS011;65834;52.364;9.754;2023-07-24T08:44:11;8.70;;;3.00;;
76863;SDS011;65834;52.364;9.754;2023-07-24T08:49:12;9.45;;;2.97;;
76863;SDS011;65834;52.364;9.754;2023-07-24T08:51:43;11.00;;;3.97;;
76863;SDS011;65834;52.364;9.754;2023-07-24T08:54:13;9.27;;;3.05;;
76863;SDS011;65834;52.364;9.754;2023-07-24T08:56:44;9.05;;;3.42;;
76863;SDS011;65834;52.364;9.754;2023-07-24T08:59:19;10.65;;;3.38;;
76863;SDS011;65834;52.364;9.754;2023-07-24T09:01:48;8.38;;;3.50;;
76863;SDS011;65834;52.364;9.754;2023-07-24T09:04:18;8.93;;;3.60;;
76863;SDS011;65834;52.364;9.754;2023-07-24T09:06:48;10.02;;;3.97;;
76863;SDS011;65834;52.364;9.754;2023-07-24T09:09:19;10.95;;;4.30;;
76863;SDS011;65834;52.364;9.754;2023-07-24T09:11:49;12.32;;;4.78;;
76863;SDS011;65834;52.364;9.754;2023-07-24T09:14:23;11.20;;;4.70;;
76863;SDS011;65834;52.364;9.754;2023-07-24T09:17:04;12.18;;;4.97;;
76863;SDS011;65834;52.364;9.754;2023-07-24T09:19:34;10.80;;;4.28;;
76863;SDS011;65834;52.364;9.754;2023-07-24T09:22:08;13.60;;;5.07;;
76863;SDS011;65834;52.364;9.754;2023-07-24T09:24:48;12.20;;;5.75;;
76863;SDS011;65834;52.364;9.754;2023-07-24T09:27:18;10.98;;;4.38;;
76863;SDS011;65834;52.364;9.754;2023-07-24T09:29:52;10.45;;;4.93;;
76863;SDS011;65834;52.364;9.754;2023-07-24T09:32:22;10.45;;;4.43;;
76863;SDS011;65834;52.364;9.754;2023-07-24T09:34:53;11.30;;;4.70;;
76863;SDS011;65834;52.364;9.754;2023-07-24T09:37:23;11.52;;;5.40;;
76863;SDS011;65834;52.364;9.754;2023-07-24T09:39:54;13.07;;;5.22;;
76863;SDS011;65834;52.364;9.754;2023-07-24T09:42:29;11.50;;;4.97;;
76863;SDS011;65834;52.364;9.754;2023-07-24T09:45:02;11.57;;;4.78;;
76863;SDS011;65834;52.364;9.754;2023-07-24T09:47:34;9.15;;;4.40;;
76863;SDS011;65834;52.364;9.754;2023-07-24T09:50:22;10.80;;;4.63;;
76863;SDS011;65834;52.364;9.754;2023-07-24T09:52:52;11.40;;;4.78;;
76863;SDS011;65834;52.364;9.754;2023-07-24T09:55:25;10.75;;;4.88;;
76863;SDS011;65834;52.364;9.754;2023-07-24T09:57:59;11.70;;;4.88;;
76863;SDS011;65834;52.364;9.754;2023-07-24T10:00:38;11.25;;;5.05;;
76863;SDS011;65834;52.364;9.754;2023-07-24T10:03:09;9.48;;;4.55;;
76863;SDS011;65834;52.364;9.754;2023-07-24T10:05:39;12.50;;;5.22;;
76863;SDS011;65834;52.364;9.754;2023-07-24T10:08:09;11.48;;;4.88;;
76863;SDS011;65834;52.364;9.754;2023-07-24T10:10:39;10.20;;;4.30;;
76863;SDS011;65834;52.364;9.754;2023-07-24T10:13:09;10.50;;;4.45;;
76863;SDS011;65834;52.364;9.754;2023-07-24T10:15:44;9.98;;;4.60;;
76863;SDS011;65834;52.364;9.754;2023-07-24T10:18:16;9.73;;;4.47;;
76863;SDS011;65834;52.364;9.754;2023-07-24T10:20:47;12.53;;;4.90;;
76863;SDS011;65834;52.364;9.754;2023-07-24T10:23:17;10.95;;;4.65;;
76863;SDS011;65834;52.364;9.754;2023-07-24T10:25:50;10.25;;;4.68;;
76863;SDS011;65834;52.364;9.754;2023-07-24T10:28:29;10.93;;;4.55;;
76863;SDS011;65834;52.364;9.754;2023-07-24T10:31:03;10.85;;;4.15;;
76863;SDS011;65834;52.364;9.754;2023-07-24T10:33:43;9.32;;;3.90;;
76863;SDS011;65834;52.364;9.754;2023-07-24T10:36:16;9.32;;;3.88;;
76863;SDS011;65834;52.364;9.754;2023-07-24T10:38:51;10.70;;;4.22;;
76863;SDS011;65834;52.364;9.754;2023-07-24T10:41:23;9.60;;;3.78;;
76863;SDS011;65834;52.364;9.754;2023-07-24T10:44:04;9.00;;;3.90;;
76863;SDS011;65834;52.364;9.754;2023-07-24T10:46:39;10.20;;;4.13;;
76863;SDS011;65834;52.364;9.754;2023-07-24T10:49:11;9.18;;;4.18;;
76863;SDS011;65834;52.364;9.754;2023-07-24T10:51:40;8.82;;;4.22;;
76863;SDS011;65834;52.364;9.754;2023-07-24T10:54:10;8.82;;;3.78;;
76863;SDS011;65834;52.364;9.754;2023-07-24T10:56:39;10.48;;;4.47;;
76863;SDS011;65834;52.364;9.754;2023-07-24T10:59:09;9.80;;;4.53;;
76863;SDS011;65834;52.364;9.754;2023-07-24T11:01:43;10.73;;;4.60;;
76863;SDS011;65834;52.364;9.754;2023-07-24T11:04:13;10.40;;;4.85;;
76863;SDS011;65834;52.364;9.754;2023-07-24T11:06:43;12.35;;;4.55;;
76863;SDS011;65834;52.364;9.754;2023-07-24T11:09:12;11.43;;;4.75;;
76863;SDS011;65834;52.364;9.754;2023-07-24T11:11:42;11.00;;;4.82;;
76863;SDS011;65834;52.364;9.754;2023-07-24T11:14:13;10.32;;;5.00;;
76863;SDS011;65834;52.364;9.754;2023-07-24T11:16:50;11.90;;;4.95;;
76863;SDS011;65834;52.364;9.754;2023-07-24T11:19:22;10.68;;;5.53;;
76863;SDS011;65834;52.364;9.754;2023-07-24T11:21:52;10.93;;;4.63;;
76863;SDS011;65834;52.364;9.754;2023-07-24T11:24:21;11.57;;;4.85;;
76863;SDS011;65834;52.364;9.754;2023-07-24T11:26:51;11.98;;;5.28;;
76863;SDS011;65834;52.364;9.754;2023-07-24T11:29:21;11.88;;;5.55;;
76863;SDS011;65834;52.364;9.754;2023-07-24T11:31:56;12.63;;;5.28;;
76863;SDS011;65834;52.364;9.754;2023-07-24T11:34:25;11.05;;;5.30;;
76863;SDS011;65834;52.364;9.754;2023-07-24T11:36:55;11.75;;;5.32;;
76863;SDS011;65834;52.364;9.754;2023-07-24T11:39:25;12.05;;;5.53;;
76863;SDS011;65834;52.364;9.754;2023-07-24T11:41:54;11.60;;;5.53;;
76863;SDS011;65834;52.364;9.754;2023-07-24T11:44:24;11.45;;;5.85;;
76863;SDS011;65834;52.364;9.754;2023-07-24T11:47:02;12.45;;;5.70;;
76863;SDS011;65834;52.364;9.754;2023-07-24T11:49:33;14.32;;;5.85;;
76863;SDS011;65834;52.364;9.754;2023-07-24T11:52:04;12.23;;;5.63;;
76863;SDS011;65834;52.364;9.754;2023-07-24T11:54:35;12.05;;;5.20;;
76863;SDS011;65834;52.364;9.754;2023-07-24T11:57:13;9.52;;;4.13;;
76863;SDS011;65834;52.364;9.754;2023-07-24T11:59:44;10.77;;;4.47;;
76863;SDS011;65834;52.364;9.754;2023-07-24T12:02:16;10.35;;;4.35;;
76863;SDS011;65834;52.364;9.754;2023-07-24T12:04:52;10.73;;;4.05;;
76863;SDS011;65834;52.364;9.754;2023-07-24T12:07:28;9.30;;;4.20;;
76863;SDS011;65834;52.364;9.754;2023-07-24T12:10:00;10.70;;;4.50;;
76863;SDS011;65834;52.364;9.754;2023-07-24T12:12:39;10.65;;;4.88;;
76863;SDS011;65834;52.364;9.754;2023-07-24T12:15:13;10.43;;;4.25;;
76863;SDS011;65834;52.364;9.754;2023-07-24T12:17:46;11.75;;;4.75;;
76863;SDS011;65834;52.364;9.754;2023-07-24T12:20:16;9.98;;;4.40;;
76863;SDS011;65834;52.364;9.754;2023-07-24T12:22:45;10.25;;;4.30;;
76863;SDS011;65834;52.364;9.754;2023-07-24T12:25:15;11.02;;;4.32;;
76863;SDS011;65834;52.364;9.754;2023-07-24T12:27:46;10.65;;;4.50;;
76863;SDS011;65834;52.364;9.754;2023-07-24T12:30:15;11.88;;;4.65;;
76863;SDS011;65834;52.364;9.754;2023-07-24T12:32:48;11.88;;;4.80;;
76863;SDS011;65834;52.364;9.754;2023-07-24T12:35:18;10.80;;;4.82;;
76863;SDS011;65834;52.364;9.754;2023-07-24T12:37:47;12.55;;;5.22;;
76863;SDS011;65834;52.364;9.754;2023-07-24T12:40:17;12.70;;;6.90;;
76863;SDS011;65834;52.364;9.754;2023-07-24T12:42:47;11.85;;;5.10;;
76863;SDS011;65834;52.364;9.754;2023-07-24T12:45:16;13.55;;;5.70;;
76863;SDS011;65834;52.364;9.754;2023-07-24T12:47:48;11.60;;;5.60;;
76863;SDS011;65834;52.364;9.754;2023-07-24T12:50:19;13.63;;;5.20;;
76863;SDS011;65834;52.364;9.754;2023-07-24T12:52:50;11.73;;;4.93;;
76863;SDS011;65834;52.364;9.754;2023-07-24T12:55:20;10.38;;;4.95;;
76863;SDS011;65834;52.364;9.754;2023-07-24T12:57:50;11.25;;;5.05;;
76863;SDS011;65834;52.364;9.754;2023-07-24T13:00:20;11.70;;;5.15;;
76863;SDS011;65834;52.364;9.754;2023-07-24T13:02:53;12.63;;;5.85;;
76863;SDS011;65834;52.364;9.754;2023-07-24T13:05:23;11.50;;;5.40;;
76863;SDS011;65834;52.364;9.754;2023-07-24T13:07:53;11.95;;;5.40;;
76863;SDS011;65834;52.364;9.754;2023-07-24T13:10:23;12.63;;;5.40;;
76863;SDS011;65834;52.364;9.754;2023-07-24T13:12:52;12.70;;;5.40;;
76863;SDS011;65834;52.364;9.754;2023-07-24T13:15:22;11.05;;;5.40;;
76863;SDS011;65834;52.364;9.754;2023-07-24T13:17:55;11.20;;;5.05;;
76863;SDS011;65834;52.364;9.754;2023-07-24T13:20:36;11.55;;;5.10;;
76863;SDS011;65834;52.364;9.754;2023-07-24T13:23:05;11.98;;;4.80;;
76863;SDS011;65834;52.364;9.754;2023-07-24T13:25:35;9.32;;;4.10;;
76863;SDS011;65834;52.364;9.754;2023-07-24T13:28:05;11.38;;;4.70;;
76863;SDS011;65834;52.364;9.754;2023-07-24T13:30:35;9.73;;;4.35;;
76863;SDS011;65834;52.364;9.754;2023-07-24T13:33:07;10.80;;;4.72;;
76863;SDS011;65834;52.364;9.754;2023-07-24T13:35:36;8.27;;;3.78;;
76863;SDS011;65834;52.364;9.754;2023-07-24T13:38:07;9.48;;;4.00;;
76863;SDS011;65834;52.364;9.754;2023-07-24T13:40:38;9.15;;;3.95;;
76863;SDS011;65834;52.364;9.754;2023-07-24T13:43:08;8.73;;;3.83;;
76863;SDS011;65834;52.364;9.754;2023-07-24T13:45:37;8.85;;;3.67;;
76863;SDS011;65834;52.364;9.754;2023-07-24T13:48:10;8.63;;;3.72;;
76863;SDS011;65834;52.364;9.754;2023-07-24T13:50:39;8.40;;;3.78;;
76863;SDS011;65834;52.364;9.754;2023-07-24T13:53:09;7.32;;;3.80;;
76863;SDS011;65834;52.364;9.754;2023-07-24T13:55:51;11.13;;;3.97;;
76863;SDS011;65834;52.364;9.754;2023-07-24T13:58:20;7.70;;;3.30;;
76863;SDS011;65834;52.364;9.754;2023-07-24T14:00:50;9.70;;;3.45;;
76863;SDS011;65834;52.364;9.754;2023-07-24T14:03:22;7.68;;;3.35;;
76863;SDS011;65834;52.364;9.754;2023-07-24T14:05:56;9.50;;;4.15;;
76863;SDS011;65834;52.364;9.754;2023-07-24T14:08:26;9.00;;;3.65;;
76863;SDS011;65834;52.364;9.754;2023-07-24T14:10:55;10.30;;;4.13;;
76863;SDS011;65834;52.364;9.754;2023-07-24T14:13:25;8.50;;;3.60;;
76863;SDS011;65834;52.364;9.754;2023-07-24T14:15:54;10.98;;;4.25;;
76863;SDS011;65834;52.364;9.754;2023-07-24T14:18:27;10.38;;;4.20;;
76863;SDS011;65834;52.364;9.754;2023-07-24T14:20:56;9.23;;;3.90;;
76863;SDS011;65834;52.364;9.754;2023-07-24T14:23:26;10.48;;;3.72;;
76863;SDS011;65834;52.364;9.754;2023-07-24T14:25:55;11.27;;;4.53;;
76863;SDS011;65834;52.364;9.754;2023-07-24T14:28:25;8.60;;;3.97;;
76863;SDS011;65834;52.364;9.754;2023-07-24T14:30:55;9.57;;;4.45;;
76863;SDS011;65834;52.364;9.754;2023-07-24T14:33:27;8.30;;;3.70;;
76863;SDS011;65834;52.364;9.754;2023-07-24T14:35:56;8.57;;;3.70;;
76863;SDS011;65834;52.364;9.754;2023-07-24T14:38:26;6.60;;;3.28;;
76863;SDS011;65834;52.364;9.754;2023-07-24T14:40:55;7.18;;;3.15;;
76863;SDS011;65834;52.364;9.754;2023-07-24T14:45:57;6.10;;;2.85;;
76863;SDS011;65834;52.364;9.754;2023-07-24T14:48:33;6.82;;;2.78;;
76863;SDS011;65834;52.364;9.754;2023-07-24T14:51:03;6.70;;;2.70;;
76863;SDS011;65834;52.364;9.754;2023-07-24T14:53:33;7.38;;;2.95;;
76863;SDS011;65834;52.364;9.754;2023-07-24T14:56:03;7.13;;;2.95;;
76863;SDS011;65834;52.364;9.754;2023-07-24T14:58:33;9.38;;;3.40;;
76863;SDS011;65834;52.364;9.754;2023-07-24T15:01:05;8.18;;;3.45;;
76863;SDS011;65834;52.364;9.754;2023-07-24T15:03:37;8.80;;;3.60;;
76863;SDS011;65834;52.364;9.754;2023-07-24T15:06:07;10.85;;;3.97;;
76863;SDS011;65834;52.364;9.754;2023-07-24T15:08:37;9.10;;;3.40;;
76863;SDS011;65834;52.364;9.754;2023-07-24T15:11:06;7.65;;;3.20;;
76863;SDS011;65834;52.364;9.754;2023-07-24T15:13:36;9.55;;;3.45;;
76863;SDS011;65834;52.364;9.754;2023-07-24T15:16:05;10.25;;;4.10;;